createdAt,value
2022-10-06T00:03:55.239Z,2.60
2022-10-06T00:08:56.823Z,3.03
2022-10-06T00:13:58.383Z,2.80
2022-10-06T00:18:59.983Z,2.70
2022-10-06T00:24:02.201Z,2.92
2022-10-06T00:29:03.805Z,3.10
2022-10-06T00:34:05.399Z,2.55
2022-10-06T00:39:07.162Z,1.80
2022-10-06T00:44:08.727Z,1.90
2022-10-06T00:49:23.156Z,1.40
2022-10-06T00:54:25.394Z,1.50
2022-10-06T00:59:26.975Z,1.30
2022-10-06T01:04:33.108Z,1.55
2022-10-06T01:09:35.107Z,1.30
2022-10-06T01:14:39.224Z,1.27
2022-10-06T01:20:04.153Z,1.30
2022-10-06T01:25:08.094Z,1.05
2022-10-06T01:30:14.450Z,1.10
2022-10-06T01:35:16.083Z,1.00
2022-10-06T01:40:17.712Z,1.25
2022-10-06T01:45:19.291Z,1.20
2022-10-06T01:50:20.938Z,1.00
2022-10-06T01:55:22.505Z,1.25
2022-10-06T02:00:24.487Z,1.60
2022-10-06T02:05:26.114Z,1.17
2022-10-06T02:10:27.723Z,1.27
2022-10-06T02:15:33.090Z,1.20
2022-10-06T02:20:34.672Z,1.30
2022-10-06T02:25:36.263Z,1.27
2022-10-06T02:30:37.857Z,1.10
2022-10-06T02:35:39.592Z,1.27
2022-10-06T02:40:41.618Z,1.00
2022-10-06T02:45:43.328Z,1.17
2022-10-06T02:50:45.495Z,1.00
2022-10-06T02:55:47.119Z,0.93
2022-10-06T03:00:48.700Z,1.40
2022-10-06T03:05:50.354Z,1.27
2022-10-06T03:10:51.932Z,1.48
2022-10-06T03:15:53.581Z,1.17
2022-10-06T03:21:00.535Z,1.15
2022-10-06T03:26:02.147Z,1.35
2022-10-06T03:31:05.679Z,1.10
2022-10-06T03:36:12.559Z,1.13
2022-10-06T03:41:17.185Z,1.33
2022-10-06T03:46:21.465Z,1.35
2022-10-06T03:51:24.643Z,1.10
2022-10-06T03:56:28.149Z,1.30
2022-10-06T04:01:35.835Z,1.40
2022-10-06T04:06:40.586Z,1.20
2022-10-06T04:11:43.074Z,1.45
2022-10-06T04:16:50.077Z,1.38
2022-10-06T04:21:51.832Z,1.50
2022-10-06T04:26:53.463Z,1.40
2022-10-06T04:31:55.054Z,1.50
2022-10-06T04:36:56.673Z,1.30
2022-10-06T04:41:58.262Z,1.65
2022-10-06T04:47:01.331Z,1.60
2022-10-06T04:52:03.049Z,1.88
2022-10-06T04:57:06.012Z,2.38
2022-10-06T05:02:07.826Z,1.98
2022-10-06T05:07:09.450Z,1.80
2022-10-06T05:12:11.550Z,1.70
2022-10-06T05:17:13.187Z,2.03
2022-10-06T05:22:14.769Z,1.80
2022-10-06T05:27:16.350Z,1.92
2022-10-06T05:32:17.982Z,1.90
2022-10-06T05:37:19.609Z,1.70
2022-10-06T05:42:22.089Z,1.75
2022-10-06T05:47:25.701Z,1.80
2022-10-06T05:52:27.298Z,1.73
2022-10-06T05:57:28.921Z,1.90
2022-10-06T06:02:30.622Z,1.95
2022-10-06T06:07:32.264Z,1.90
2022-10-06T06:12:33.848Z,1.70
2022-10-06T06:17:35.475Z,1.88
2022-10-06T06:22:37.140Z,1.98
2022-10-06T06:27:42.189Z,1.70
2022-10-06T06:32:43.784Z,2.22
2022-10-06T06:37:46.509Z,2.10
2022-10-06T06:42:51.611Z,2.00
2022-10-06T06:47:55.337Z,1.98
2022-10-06T06:52:56.947Z,2.60
2022-10-06T06:57:58.564Z,1.70
2022-10-06T07:03:00.691Z,1.95
2022-10-06T07:08:02.288Z,2.88
2022-10-06T07:13:04.821Z,2.70
2022-10-06T07:18:25.061Z,2.45
2022-10-06T07:23:45.500Z,2.23
2022-10-06T07:28:48.763Z,2.30
2022-10-06T07:33:51.273Z,2.42
2022-10-06T07:38:52.850Z,2.70
2022-10-06T07:43:54.658Z,2.97
2022-10-06T07:48:56.276Z,2.70
2022-10-06T07:53:57.852Z,2.88
2022-10-06T07:58:59.488Z,2.88
2022-10-06T08:04:02.626Z,2.42
2022-10-06T08:09:05.719Z,2.67
2022-10-06T08:14:07.433Z,2.78
2022-10-06T08:19:09.194Z,3.00
2022-10-06T08:24:10.990Z,2.90
2022-10-06T08:29:12.585Z,2.85
2022-10-06T08:34:14.179Z,3.08
2022-10-06T08:39:15.793Z,3.45
2022-10-06T08:44:56.731Z,3.05
2022-10-06T08:49:58.989Z,2.47
2022-10-06T08:55:24.871Z,2.80
2022-10-06T09:00:29.869Z,3.03
2022-10-06T09:05:34.782Z,2.70
2022-10-06T09:10:56.483Z,3.20
2022-10-06T09:16:07.589Z,2.72
2022-10-06T09:21:33.213Z,3.08
2022-10-06T09:26:34.809Z,2.63
2022-10-06T09:31:47.551Z,2.97
2022-10-06T09:37:01.959Z,2.70
2022-10-06T09:42:09.905Z,2.83
2022-10-06T09:47:32.486Z,3.53
2022-10-06T09:52:34.083Z,2.58
2022-10-06T09:57:37.331Z,2.72
2022-10-06T10:02:41.009Z,3.45
2022-10-06T10:07:44.174Z,2.33
2022-10-06T10:12:57.517Z,2.55
2022-10-06T10:18:01.225Z,2.55
2022-10-06T10:23:17.017Z,2.80
2022-10-06T10:28:30.912Z,3.13
2022-10-06T10:33:54.066Z,2.72
2022-10-06T10:39:14.169Z,2.45
2022-10-06T10:44:29.280Z,2.50
2022-10-06T10:49:33.402Z,2.50
2022-10-06T10:54:44.960Z,3.03
2022-10-06T10:59:55.412Z,2.80
2022-10-06T11:05:28.999Z,2.55
2022-10-06T11:10:36.391Z,2.80
2022-10-06T11:15:37.920Z,2.38
2022-10-06T11:20:50.360Z,2.38
2022-10-06T11:26:04.906Z,2.40
2022-10-06T11:31:11.585Z,2.20
2022-10-06T11:36:19.562Z,2.25
2022-10-06T11:41:33.459Z,2.47
2022-10-06T11:46:45.520Z,2.30
2022-10-06T11:51:47.148Z,2.50
2022-10-06T11:56:48.730Z,2.35
2022-10-06T12:01:51.871Z,2.08
2022-10-06T12:06:57.082Z,2.25
2022-10-06T12:11:58.707Z,1.85
2022-10-06T12:17:18.337Z,1.90
2022-10-06T12:22:38.764Z,1.98
2022-10-06T12:27:46.519Z,2.00
2022-10-06T12:32:57.469Z,1.77
2022-10-06T12:38:04.913Z,2.10
2022-10-06T12:43:14.344Z,1.90
2022-10-06T12:48:28.415Z,1.80
2022-10-06T12:53:38.515Z,1.80
2022-10-06T12:58:40.724Z,1.75
2022-10-06T13:03:48.290Z,1.80
2022-10-06T13:09:13.375Z,1.73
2022-10-06T13:14:17.078Z,1.90
2022-10-06T13:19:26.958Z,1.60
2022-10-06T13:24:28.805Z,2.10
2022-10-06T13:29:31.853Z,1.73
2022-10-06T13:34:43.272Z,1.67
2022-10-06T13:39:45.110Z,1.80
2022-10-06T13:45:00.802Z,1.60
2022-10-06T13:50:06.481Z,1.52
2022-10-06T13:55:29.398Z,2.08
2022-10-06T14:00:55.935Z,1.50
2022-10-06T14:06:08.542Z,1.60
2022-10-06T14:11:10.867Z,1.60
2022-10-06T14:16:21.142Z,1.60
2022-10-06T14:21:45.746Z,1.75
2022-10-06T14:26:55.721Z,1.98
2022-10-06T14:32:08.469Z,1.73
2022-10-06T14:37:15.171Z,2.00
2022-10-06T14:42:17.451Z,1.92
2022-10-06T14:47:19.836Z,1.42
2022-10-06T14:52:22.289Z,1.85
2022-10-06T14:57:23.888Z,1.67
2022-10-06T15:02:25.612Z,1.55
2022-10-06T15:07:46.035Z,1.80
2022-10-06T15:12:47.704Z,1.80
2022-10-06T15:17:49.435Z,1.92
2022-10-06T15:22:51.081Z,1.83
2022-10-06T15:28:11.685Z,1.80
2022-10-06T15:33:13.425Z,1.90
2022-10-06T15:38:15.048Z,1.52
2022-10-06T15:43:36.651Z,1.50
2022-10-06T15:48:41.232Z,1.60
2022-10-06T15:53:46.505Z,1.70
2022-10-06T15:58:48.854Z,1.80
2022-10-06T16:03:50.882Z,2.10
2022-10-06T16:08:52.676Z,1.58
2022-10-06T16:13:54.269Z,1.70
2022-10-06T16:18:56.258Z,1.80
2022-10-06T16:23:59.160Z,1.85
2022-10-06T16:29:00.742Z,1.85
2022-10-06T16:34:17.805Z,1.60
2022-10-06T16:39:22.009Z,1.55
2022-10-06T16:44:23.656Z,1.60
2022-10-06T16:49:27.282Z,1.63
2022-10-06T16:54:28.938Z,1.80
2022-10-06T16:59:31.002Z,1.58
2022-10-06T17:04:32.704Z,1.70
2022-10-06T17:09:34.928Z,2.42
2022-10-06T17:14:36.517Z,2.00
2022-10-06T17:19:38.086Z,2.00
2022-10-06T17:24:39.684Z,2.17
2022-10-06T17:29:41.294Z,2.35
2022-10-06T17:34:42.913Z,2.10
2022-10-06T17:39:46.964Z,1.80
2022-10-06T17:44:48.968Z,2.55
2022-10-06T17:49:50.809Z,2.20
2022-10-06T17:54:54.402Z,1.92
2022-10-06T17:59:59.086Z,2.13
2022-10-06T18:05:00.684Z,2.28
2022-10-06T18:10:21.105Z,2.40
2022-10-06T18:15:22.703Z,2.25
2022-10-06T18:20:29.958Z,2.30
2022-10-06T18:25:31.619Z,2.22
2022-10-06T18:30:33.825Z,2.40
2022-10-06T18:41:02.577Z,2.92
2022-10-06T18:46:24.676Z,2.88
2022-10-06T18:51:27.002Z,2.80
2022-10-06T18:56:31.391Z,2.60
2022-10-06T19:01:33.112Z,2.83
2022-10-06T19:06:35.756Z,2.70
2022-10-06T19:12:06.993Z,2.83
2022-10-06T19:17:14.287Z,3.13
2022-10-06T19:22:16.263Z,2.85
2022-10-06T19:27:26.194Z,2.72
2022-10-06T19:32:32.786Z,2.60
2022-10-06T19:37:34.716Z,2.42
2022-10-06T19:42:48.246Z,3.65
2022-10-06T19:47:51.705Z,2.65
2022-10-06T19:52:53.471Z,2.90
2022-10-06T19:57:55.159Z,3.58
2022-10-06T20:02:57.044Z,2.30
2022-10-06T20:07:59.123Z,3.20
2022-10-06T20:13:00.696Z,2.92
2022-10-06T20:18:04.357Z,2.45
2022-10-06T20:23:06.767Z,2.85
2022-10-06T20:28:09.464Z,2.55
2022-10-06T20:33:11.340Z,3.00
2022-10-06T20:38:14.715Z,2.75
2022-10-06T20:43:16.897Z,3.78
2022-10-06T20:48:18.465Z,3.30
2022-10-06T20:53:20.155Z,2.70
2022-10-06T20:58:21.723Z,2.45
2022-10-06T21:03:23.423Z,2.60
2022-10-06T21:08:25.163Z,2.88
2022-10-06T21:13:28.502Z,2.53
2022-10-06T21:18:31.497Z,2.95
2022-10-06T21:23:38.196Z,2.92
2022-10-06T21:28:40.049Z,2.60
2022-10-06T21:33:43.212Z,2.42
2022-10-06T21:38:47.953Z,2.40
2022-10-06T21:44:16.939Z,2.53
2022-10-06T21:49:20.998Z,2.30
2022-10-06T21:54:23.934Z,3.05
2022-10-06T21:59:25.702Z,2.67
2022-10-06T22:04:27.429Z,3.35
2022-10-06T22:09:29.194Z,2.80
2022-10-06T22:14:30.892Z,3.08
2022-10-06T22:19:32.601Z,2.90
2022-10-06T22:24:34.308Z,3.33
2022-10-06T22:29:36.032Z,3.10
2022-10-06T22:34:38.242Z,2.88
2022-10-06T22:39:39.950Z,2.85
2022-10-06T22:44:41.648Z,2.63
2022-10-06T22:49:43.377Z,2.92
2022-10-06T22:54:45.188Z,2.72
2022-10-06T22:59:46.889Z,2.83
2022-10-06T23:04:48.617Z,2.67
2022-10-06T23:09:50.339Z,2.75
2022-10-06T23:14:52.037Z,2.67
2022-10-06T23:19:53.745Z,2.72
2022-10-06T23:24:55.577Z,2.50
2022-10-06T23:29:57.307Z,3.10
2022-10-06T23:34:59.029Z,3.00
2022-10-06T23:40:00.834Z,2.50
2022-10-06T23:45:02.546Z,2.67
2022-10-06T23:50:04.614Z,3.03
2022-10-06T23:55:06.594Z,2.40
